Nearby METAR Reports

 

CYOW - Ottawa Intl, Ontario, Canada
Distance from station: NNW 27km
Updated: 06/21/2021 9:00am
Overcast
Overcast
 Wind from S
Wind: S 19 km/h
Temperature: 20°C
Dew Point: 19°C
Humidity: 94%
Barometer: 1000 hPa
Clouds: Overcast
Visibility: 24 km
Cloud details: Few Clouds 1372 m
Partly cloudy 3353 m
Overcast 3962 m
2021/06/21 13:00 CYOW 211300Z 17010KT 15SM FEW045 SCT110 OVC130 20/19 A2953 RMK SC1AC3AC4 SLP999 DENSITY ALT 1600FT
KMSS - Massena, New York, USA
Distance from station: ESE 54km
Updated: 06/21/2021 8:53am
Light rain, Overcast
Light rain, Overcast
 Wind from calm
Wind: Calm
Temperature: 22°C
Dew Point: 19°C
Humidity: 83%
Barometer: 1001 hPa
Summary: Light rain
Clouds: Overcast
Visibility: 16 km
Cloud details: Few Clouds 2286 m
Few Clouds 2743 m
Overcast 3353 m
2021/06/21 12:53 KMSS 211253Z AUTO 00000KT 10SM -RA FEW075 FEW090 OVC110 22/19 A2956 RMK AO2 RAE01B33 SLP008 P0000 T02220189
KOGS - Ogdensburg Intl, New York, USA
Distance from station: S 48km
Updated: 06/21/2021 8:55am
Rain, Mostly cloudy
Rain, Mostly cloudy
 Wind from SSW
Wind: SSW 15 km/h, Gust: 33 km/h
Temperature: 20°C
Dew Point: 20°C
Humidity: 100%
Barometer: 1000.3 hPa
Summary: Rain
Clouds: Mostly cloudy
Visibility: 3 km
Cloud details: Few Clouds 274 m
Partly cloudy 884 m
Mostly cloudy 1036 m
2021/06/21 12:55 KOGS 211255Z AUTO 21008G18KT 2SM RA FEW009 SCT029 BKN034 20/20 A2954 RMK AO2 P0012
 
CXKE - Kemptville, Ontario, Canada
Distance from station: SW 15km
Updated: 06/21/2021 9:00am

 Wind from S
Wind: S 9 km/h
Temperature: 21°C
Dew Point: 19°C
Humidity: 88%
2021/06/21 13:00 CXKE 211300Z AUTO 19005KT 21/19 RMK AO1 SLP001 T02060193 57013